Time;durP1;ratioP1;P1;durP2;ratioP2;P2;SDS_P1;SDS_P2;PMS_P1;PMS_P2;Temp;Humidity;BMP_temperature;BMP_pressure;BME280_temperature;BME280_humidity;BME280_pressure;Samples;Min_cycle;Max_cycle;Signal;HPM_P1;HPM_P2
2023/12/12 00:01:06;;;;;;;3.57;2.00;;;15.10;99.90;;;;;;4978984;28;20640;-93
2023/12/12 00:03:32;;;;;;;2.73;2.03;;;15.10;99.90;;;;;;4980094;28;20545;-92
2023/12/12 00:05:58;;;;;;;9.53;2.47;;;15.10;99.90;;;;;;4979883;28;20330;-92
2023/12/12 00:08:23;;;;;;;2.93;2.07;;;15.10;99.90;;;;;;4978945;28;20570;-92
2023/12/12 00:10:52;;;;;;;4.10;2.20;;;15.10;99.90;;;;;;4980208;28;20189;-92
2023/12/12 00:13:18;;;;;;;2.53;2.20;;;15.10;99.90;;;;;;4980458;28;20170;-92
2023/12/12 00:15:48;;;;;;;2.90;2.10;;;15.10;99.90;;;;;;4980547;28;20235;-92
2023/12/12 00:18:14;;;;;;;4.47;2.50;;;15.10;99.90;;;;;;4980173;28;20242;-93
2023/12/12 00:20:39;;;;;;;2.87;2.30;;;15.10;99.90;;;;;;4980409;28;20186;-92
2023/12/12 00:23:05;;;;;;;3.03;2.00;;;15.10;99.90;;;;;;4979790;28;20177;-92
2023/12/12 00:25:31;;;;;;;3.40;2.30;;;15.10;99.90;;;;;;4979202;28;20328;-92
2023/12/12 00:27:56;;;;;;;3.30;1.90;;;15.10;99.90;;;;;;4980141;28;20174;-92
2023/12/12 00:30:22;;;;;;;3.60;2.20;;;15.10;99.90;;;;;;4980147;28;20430;-92
2023/12/12 00:32:51;;;;;;;3.17;1.97;;;15.10;99.90;;;;;;4980237;28;20267;-92
2023/12/12 00:35:20;;;;;;;4.07;2.33;;;15.10;99.90;;;;;;4979978;28;20472;-92
2023/12/12 00:37:45;;;;;;;2.97;2.10;;;15.10;99.90;;;;;;4980618;28;20207;-92
2023/12/12 00:40:13;;;;;;;3.30;2.10;;;15.10;99.90;;;;;;4980380;28;20561;-92
2023/12/12 00:42:39;;;;;;;2.63;2.00;;;15.10;99.90;;;;;;4981111;28;20182;-92
2023/12/12 00:45:06;;;;;;;4.17;2.57;;;15.10;99.90;;;;;;4980555;28;20463;-92
2023/12/12 00:47:32;;;;;;;2.63;2.03;;;15.10;99.90;;;;;;4980757;28;20274;-92
2023/12/12 00:50:01;;;;;;;4.07;2.37;;;15.10;99.90;;;;;;4979484;28;20257;-92
2023/12/12 00:52:30;;;;;;;3.40;2.03;;;15.10;99.90;;;;;;4961532;28;20214;-92
2023/12/12 00:54:59;;;;;;;3.73;2.20;;;15.10;99.90;;;;;;4979774;28;20176;-92
2023/12/12 00:57:25;;;;;;;3.13;2.17;;;15.10;99.90;;;;;;4979634;28;20572;-91
2023/12/12 00:59:54;;;;;;;3.80;2.00;;;15.10;99.90;;;;;;4979745;28;20192;-92
2023/12/12 01:02:23;;;;;;;4.27;2.20;;;15.10;99.90;;;;;;4979979;28;20357;-92
2023/12/12 01:04:49;;;;;;;2.37;2.00;;;15.10;99.90;;;;;;4980341;28;20207;-92
2023/12/12 01:07:14;;;;;;;3.87;2.20;;;15.10;99.90;;;;;;4980040;28;20207;-92
2023/12/12 01:09:43;;;;;;;2.60;2.13;;;15.10;99.90;;;;;;4978956;28;20408;-92
2023/12/12 01:12:08;;;;;;;3.37;2.20;;;15.10;99.90;;;;;;4980006;28;20173;-91
2023/12/12 01:14:34;;;;;;;3.17;1.87;;;15.10;99.90;;;;;;4979567;28;20448;-92
2023/12/12 01:17:00;;;;;;;2.57;2.03;;;15.10;99.90;;;;;;4979488;28;20184;-92
2023/12/12 01:19:26;;;;;;;3.43;2.10;;;15.10;99.90;;;;;;4979289;28;20188;-92
2023/12/12 01:21:52;;;;;;;1.73;1.63;;;15.10;99.90;;;;;;4979493;28;20181;-92
2023/12/12 01:24:22;;;;;;;3.43;2.13;;;15.10;99.90;;;;;;4980165;28;20221;-92
2023/12/12 01:26:47;;;;;;;2.93;1.70;;;15.10;99.90;;;;;;4978930;28;20200;-91
2023/12/12 01:29:17;;;;;;;2.40;1.80;;;15.10;99.90;;;;;;4977997;28;20274;-92
2023/12/12 01:31:45;;;;;;;3.73;2.30;;;15.10;99.90;;;;;;4977860;28;20208;-92
2023/12/12 01:34:14;;;;;;;2.33;1.90;;;15.10;99.90;;;;;;4978969;28;20180;-91
2023/12/12 01:36:40;;;;;;;3.00;2.20;;;15.10;99.90;;;;;;4977751;28;20193;-91
2023/12/12 01:39:06;;;;;;;3.17;1.83;;;15.10;99.90;;;;;;4979970;28;20177;-92
2023/12/12 01:41:31;;;;;;;2.73;2.07;;;15.10;99.90;;;;;;4979330;28;20172;-92
2023/12/12 01:44:01;;;;;;;2.67;1.90;;;15.00;99.90;;;;;;4979301;28;20177;-92
2023/12/12 01:46:28;;;;;;;2.67;1.80;;;15.10;99.90;;;;;;4979160;28;20258;-92
2023/12/12 01:48:54;;;;;;;2.50;1.90;;;15.10;99.90;;;;;;4978579;28;20195;-92
2023/12/12 01:51:22;;;;;;;2.00;1.80;;;15.10;99.90;;;;;;4976883;28;20173;-92
2023/12/12 01:53:51;;;;;;;3.20;1.83;;;15.10;99.90;;;;;;4976708;28;20170;-92
2023/12/12 01:56:21;;;;;;;3.50;2.20;;;15.00;99.90;;;;;;4977242;28;20688;-92
2023/12/12 01:58:50;;;;;;;3.13;1.90;;;15.10;99.90;;;;;;4975297;28;20354;-92
2023/12/12 02:01:16;;;;;;;2.67;2.00;;;15.00;99.90;;;;;;4976512;28;20540;-92
2023/12/12 02:03:46;;;;;;;2.27;1.87;;;15.10;99.90;;;;;;4993823;28;20177;-92
2023/12/12 02:06:14;;;;;;;3.17;2.10;;;15.00;99.90;;;;;;4976849;28;20208;-92
2023/12/12 02:08:43;;;;;;;2.40;1.80;;;15.00;99.90;;;;;;4976400;28;20208;-92
2023/12/12 02:11:16;;;;;;;3.37;1.90;;;15.00;99.90;;;;;;4975536;28;20179;-92
2023/12/12 02:13:45;;;;;;;2.50;1.83;;;15.00;99.90;;;;;;4977081;28;20193;-92
2023/12/12 02:16:12;;;;;;;3.90;2.00;;;15.00;99.90;;;;;;4977454;28;20204;-92
2023/12/12 02:18:40;;;;;;;3.53;2.30;;;15.00;99.90;;;;;;4977074;28;20181;-92
2023/12/12 02:21:06;;;;;;;2.83;1.90;;;15.00;99.90;;;;;;4977269;28;20495;-92
2023/12/12 02:23:35;;;;;;;3.87;1.93;;;15.00;99.90;;;;;;4978183;28;20199;-92
2023/12/12 02:26:02;;;;;;;2.73;1.90;;;15.00;99.90;;;;;;4978759;28;20237;-93
2023/12/12 02:28:28;;;;;;;2.53;1.90;;;15.00;99.90;;;;;;4978801;28;20548;-92
2023/12/12 02:30:59;;;;;;;2.90;1.87;;;15.00;99.90;;;;;;4977184;28;20602;-92
2023/12/12 02:33:24;;;;;;;2.27;1.80;;;15.00;99.90;;;;;;4976427;28;20562;-92
2023/12/12 02:35:50;;;;;;;3.07;2.00;;;15.10;99.90;;;;;;4977123;28;20187;-92
2023/12/12 02:38:15;;;;;;;2.50;2.00;;;15.00;99.90;;;;;;4975635;28;20300;-92
2023/12/12 02:40:42;;;;;;;2.93;2.03;;;15.00;99.90;;;;;;4975103;28;20177;-92
2023/12/12 02:43:08;;;;;;;2.10;1.77;;;15.00;99.90;;;;;;4974713;28;20180;-92
2023/12/12 02:45:33;;;;;;;2.40;1.80;;;15.00;99.90;;;;;;4973800;28;20198;-92
2023/12/12 02:48:02;;;;;;;3.57;2.00;;;15.00;99.90;;;;;;4958337;28;20217;-92
2023/12/12 02:50:28;;;;;;;2.17;1.77;;;15.00;99.90;;;;;;4973795;28;20224;-92
2023/12/12 02:52:56;;;;;;;2.50;1.80;;;15.00;99.90;;;;;;4974730;28;20204;-92
2023/12/12 02:55:25;;;;;;;2.70;1.90;;;15.00;99.90;;;;;;4975714;28;20270;-92
2023/12/12 02:57:50;;;;;;;2.77;2.00;;;15.00;99.90;;;;;;4974721;28;20172;-91
2023/12/12 03:00:16;;;;;;;3.67;2.33;;;15.00;99.90;;;;;;4975751;28;20184;-91
2023/12/12 03:02:42;;;;;;;2.30;1.93;;;15.00;99.90;;;;;;4975998;28;20475;-92
2023/12/12 03:05:10;;;;;;;2.70;1.80;;;15.00;99.90;;;;;;4992842;28;20581;-92
2023/12/12 03:07:36;;;;;;;2.87;1.90;;;15.00;99.90;;;;;;4975144;28;20167;-92
2023/12/12 03:10:04;;;;;;;2.07;1.57;;;15.00;99.90;;;;;;4975114;28;20186;-92
2023/12/12 03:12:30;;;;;;;2.07;1.70;;;15.00;99.90;;;;;;4976719;28;20185;-92
2023/12/12 03:14:56;;;;;;;2.60;1.90;;;15.00;99.90;;;;;;4976326;28;20174;-92
2023/12/12 03:17:21;;;;;;;1.77;1.47;;;15.00;99.90;;;;;;4976542;28;20537;-92
2023/12/12 03:19:51;;;;;;;3.10;1.77;;;15.00;99.90;;;;;;4977379;28;20630;-92
2023/12/12 03:22:17;;;;;;;2.70;2.00;;;15.00;99.90;;;;;;4978425;28;20181;-92
2023/12/12 03:24:42;;;;;;;2.30;1.80;;;15.00;99.90;;;;;;4982564;28;20165;-91
2023/12/12 03:27:08;;;;;;;2.30;1.80;;;15.00;99.90;;;;;;5005381;28;20213;-91
2023/12/12 03:29:35;;;;;;;3.70;1.80;;;15.00;99.90;;;;;;4987301;28;20303;-92
2023/12/12 03:32:07;;;;;;;1.90;1.70;;;15.00;99.90;;;;;;5004208;28;20206;-92
2023/12/12 03:34:35;;;;;;;2.07;1.77;;;15.00;99.90;;;;;;4982492;28;20177;-92
2023/12/12 03:37:01;;;;;;;2.40;1.63;;;15.00;99.90;;;;;;4982472;28;20557;-92
2023/12/12 03:39:26;;;;;;;1.90;1.70;;;15.00;99.90;;;;;;4981622;28;20631;-92
2023/12/12 03:41:55;;;;;;;2.13;1.53;;;15.00;99.90;;;;;;4980475;28;20182;-92
2023/12/12 03:44:20;;;;;;;1.73;1.60;;;15.00;99.90;;;;;;4981545;28;20226;-91
2023/12/12 03:46:46;;;;;;;3.23;1.83;;;15.00;99.90;;;;;;4980078;28;20432;-92
2023/12/12 03:49:12;;;;;;;2.03;1.70;;;15.00;99.90;;;;;;4981228;28;20193;-92
2023/12/12 03:51:45;;;;;;;2.77;1.80;;;15.00;99.90;;;;;;4997224;28;20234;-92
2023/12/12 03:54:10;;;;;;;4.00;1.80;;;15.00;99.90;;;;;;4979384;28;20178;-92
2023/12/12 03:56:36;;;;;;;2.00;1.60;;;15.00;99.90;;;;;;4980348;28;20208;-92
2023/12/12 03:59:02;;;;;;;3.30;1.70;;;15.00;99.90;;;;;;4981360;28;20394;-92
2023/12/12 04:01:31;;;;;;;2.10;1.70;;;15.00;99.90;;;;;;4979828;28;20195;-92
2023/12/12 04:03:57;;;;;;;3.63;1.80;;;15.00;99.90;;;;;;4981838;28;20246;-92
2023/12/12 04:06:22;;;;;;;1.93;1.33;;;15.00;99.90;;;;;;4981209;28;20214;-92
2023/12/12 04:08:49;;;;;;;2.37;1.60;;;15.00;99.90;;;;;;4997478;28;20204;-91
2023/12/12 04:11:18;;;;;;;1.97;1.57;;;15.00;99.90;;;;;;4979176;28;20202;-92
2023/12/12 04:13:46;;;;;;;2.33;1.67;;;15.00;99.90;;;;;;4979703;28;20218;-92
2023/12/12 04:16:14;;;;;;;1.97;1.57;;;15.00;99.90;;;;;;4978415;28;20181;-91
2023/12/12 04:18:44;;;;;;;3.70;1.77;;;15.00;99.90;;;;;;4979303;28;20193;-91
2023/12/12 04:21:12;;;;;;;2.17;1.70;;;14.90;99.90;;;;;;4979852;28;20203;-91
2023/12/12 04:23:42;;;;;;;2.60;1.90;;;14.90;99.90;;;;;;4980316;28;20189;-92
2023/12/12 04:26:12;;;;;;;2.77;1.80;;;14.90;99.90;;;;;;4979625;28;20212;-92
2023/12/12 04:28:39;;;;;;;2.17;1.63;;;14.90;99.90;;;;;;4997571;28;20169;-92
2023/12/12 04:31:05;;;;;;;2.70;1.77;;;14.90;99.90;;;;;;4980337;28;20542;-92
2023/12/12 04:33:30;;;;;;;2.90;1.70;;;14.90;99.90;;;;;;4979576;28;20586;-91
2023/12/12 04:35:56;;;;;;;2.13;1.70;;;14.90;99.90;;;;;;4978619;28;20194;-91
2023/12/12 04:38:22;;;;;;;2.70;2.00;;;14.90;99.90;;;;;;4978920;28;20181;-92
2023/12/12 04:40:47;;;;;;;2.20;1.50;;;14.90;99.90;;;;;;4980046;28;20273;-92
2023/12/12 04:43:16;;;;;;;2.63;1.80;;;14.90;99.90;;;;;;4976496;28;20570;-92
2023/12/12 04:45:41;;;;;;;2.80;1.80;;;14.90;99.90;;;;;;4977710;28;20205;-91
2023/12/12 04:48:07;;;;;;;2.17;1.73;;;14.90;99.90;;;;;;4976441;28;20429;-91
2023/12/12 04:50:36;;;;;;;2.67;1.80;;;14.90;99.90;;;;;;4978167;28;20178;-92
2023/12/12 04:53:02;;;;;;;1.90;1.50;;;14.90;99.90;;;;;;4976881;28;20178;-92
2023/12/12 04:55:30;;;;;;;2.73;1.90;;;14.90;99.90;;;;;;4976796;28;20177;-92
2023/12/12 04:57:57;;;;;;;3.23;1.60;;;15.00;99.90;;;;;;4976628;28;20187;-92
2023/12/12 05:00:23;;;;;;;2.23;1.53;;;15.00;99.90;;;;;;4959623;28;20194;-92
2023/12/12 05:02:48;;;;;;;2.43;1.50;;;15.00;99.90;;;;;;4976222;28;20508;-93
2023/12/12 05:05:14;;;;;;;3.53;1.73;;;15.00;99.90;;;;;;4976508;28;20219;-92
2023/12/12 05:07:40;;;;;;;2.77;1.77;;;15.10;99.90;;;;;;4977529;28;20173;-92
2023/12/12 05:10:09;;;;;;;2.80;1.57;;;15.10;99.90;;;;;;4977385;28;20177;-92
2023/12/12 05:12:35;;;;;;;3.13;1.70;;;15.10;99.90;;;;;;4977991;28;20278;-92
2023/12/12 05:15:04;;;;;;;2.93;1.80;;;15.10;99.90;;;;;;4978403;28;20260;-92
2023/12/12 05:17:31;;;;;;;2.13;1.50;;;15.10;99.90;;;;;;4977108;28;20177;-91
2023/12/12 05:20:01;;;;;;;2.77;1.70;;;15.10;99.90;;;;;;4975492;28;20554;-92
2023/12/12 05:22:26;;;;;;;2.17;1.63;;;15.10;99.90;;;;;;4975958;28;20583;-92
2023/12/12 05:24:52;;;;;;;2.03;1.60;;;15.10;99.90;;;;;;4975923;28;20157;-92
2023/12/12 05:27:18;;;;;;;2.63;1.60;;;15.10;99.90;;;;;;4976351;28;20484;-92
2023/12/12 05:29:44;;;;;;;3.20;1.60;;;15.10;99.90;;;;;;4991287;28;20556;-92
2023/12/12 05:32:10;;;;;;;2.50;1.40;;;15.10;99.90;;;;;;4973752;28;20382;-92
2023/12/12 05:34:36;;;;;;;2.70;1.70;;;15.10;99.90;;;;;;4973645;28;20180;-92
2023/12/12 05:37:05;;;;;;;2.70;1.60;;;15.10;99.90;;;;;;4974727;28;20432;-92
2023/12/12 05:39:33;;;;;;;2.53;1.63;;;15.10;99.90;;;;;;4973827;28;20203;-91
2023/12/12 05:41:59;;;;;;;2.53;1.50;;;15.10;99.90;;;;;;4973778;28;20254;-92
2023/12/12 05:44:28;;;;;;;3.50;1.57;;;15.10;99.90;;;;;;4973455;28;20264;-92
2023/12/12 05:46:53;;;;;;;2.80;1.93;;;15.10;99.90;;;;;;4974412;28;20209;-92
2023/12/12 05:49:21;;;;;;;3.43;1.63;;;15.10;99.90;;;;;;4975214;28;20204;-92
2023/12/12 05:51:50;;;;;;;1.80;1.40;;;15.00;99.90;;;;;;4975582;28;20615;-92
2023/12/12 05:54:23;;;;;;;2.27;1.50;;;15.00;99.90;;;;;;4973217;28;20235;-92
2023/12/12 05:56:48;;;;;;;2.40;1.53;;;15.00;99.90;;;;;;4975138;28;20177;-92
2023/12/12 05:59:17;;;;;;;2.83;1.73;;;15.00;99.90;;;;;;4975566;28;20181;-92
2023/12/12 06:01:45;;;;;;;2.60;1.60;;;15.00;99.90;;;;;;4973324;28;20308;-92
2023/12/12 06:04:12;;;;;;;1.97;1.50;;;15.00;99.90;;;;;;4972932;28;20177;-92
2023/12/12 06:06:42;;;;;;;2.67;1.70;;;14.90;99.90;;;;;;4972426;28;20324;-91
2023/12/12 06:09:09;;;;;;;2.77;1.50;;;15.00;99.90;;;;;;4972750;28;20344;-92
2023/12/12 06:11:42;;;;;;;2.47;1.60;;;14.90;99.90;;;;;;4972669;28;20188;-92
2023/12/12 06:14:07;;;;;;;2.47;1.50;;;14.90;99.90;;;;;;4972621;28;20170;-92
2023/12/12 06:16:34;;;;;;;3.87;1.73;;;14.90;99.90;;;;;;4972835;28;20177;-92
2023/12/12 06:19:04;;;;;;;2.37;1.60;;;14.90;99.90;;;;;;4973441;28;20246;-92
2023/12/12 06:21:32;;;;;;;1.70;1.50;;;14.90;99.90;;;;;;4972707;28;20281;-92
2023/12/12 06:24:07;;;;;;;2.20;1.33;;;14.90;99.90;;;;;;4971724;28;20228;-91
2023/12/12 06:26:37;;;;;;;2.63;1.63;;;14.90;99.90;;;;;;4971172;28;20209;-92
2023/12/12 06:29:08;;;;;;;2.30;1.70;;;14.90;99.90;;;;;;4968281;28;20173;-92
2023/12/12 06:31:38;;;;;;;3.00;1.70;;;14.90;99.90;;;;;;4970134;28;20174;-92
2023/12/12 06:34:04;;;;;;;2.33;1.70;;;14.90;99.90;;;;;;4970608;28;20188;-92
2023/12/12 06:36:30;;;;;;;1.80;1.53;;;14.80;99.90;;;;;;4970217;28;20315;-92
2023/12/12 06:38:55;;;;;;;2.63;1.60;;;14.80;99.90;;;;;;4987091;28;20182;-92
2023/12/12 06:41:21;;;;;;;2.27;1.57;;;14.90;99.90;;;;;;4969106;28;20227;-92
2023/12/12 06:43:47;;;;;;;2.00;1.60;;;14.80;99.90;;;;;;4966842;28;20170;-92
2023/12/12 06:46:12;;;;;;;2.23;1.60;;;14.90;99.90;;;;;;4968950;28;20245;-91
2023/12/12 06:48:38;;;;;;;1.77;1.37;;;14.90;99.90;;;;;;4969507;28;20191;-92
2023/12/12 06:51:10;;;;;;;2.00;1.43;;;14.90;99.90;;;;;;4984977;28;20167;-92
2023/12/12 06:53:37;;;;;;;3.00;1.70;;;14.90;99.90;;;;;;4967892;28;20170;-92
2023/12/12 06:56:05;;;;;;;2.20;1.60;;;14.90;99.90;;;;;;4968589;28;20178;-92
2023/12/12 06:58:31;;;;;;;2.80;1.80;;;14.90;99.90;;;;;;4970326;28;20189;-92
2023/12/12 07:00:57;;;;;;;2.23;1.60;;;14.90;99.90;;;;;;4967411;28;20180;-92
2023/12/12 07:03:23;;;;;;;2.23;1.50;;;14.90;99.90;;;;;;4967888;28;20168;-92
2023/12/12 07:05:56;;;;;;;4.03;1.90;;;14.90;99.90;;;;;;4952514;28;20279;-92
2023/12/12 07:08:21;;;;;;;2.40;1.67;;;14.90;99.90;;;;;;4966617;28;20172;-93
2023/12/12 07:10:48;;;;;;;2.17;1.50;;;15.00;99.90;;;;;;4965419;28;20170;-92
2023/12/12 07:13:17;;;;;;;2.20;1.60;;;14.90;99.90;;;;;;4965022;28;20464;-92
2023/12/12 07:15:42;;;;;;;2.17;1.70;;;14.90;99.90;;;;;;4966356;28;20181;-92
2023/12/12 07:18:12;;;;;;;2.70;1.70;;;14.90;99.90;;;;;;4966174;28;20181;-92
2023/12/12 07:20:39;;;;;;;2.70;1.63;;;14.90;99.90;;;;;;4967913;28;20355;-92
2023/12/12 07:23:04;;;;;;;2.17;1.30;;;14.90;99.90;;;;;;4968368;28;20297;-92
2023/12/12 07:25:30;;;;;;;2.33;1.53;;;14.90;99.90;;;;;;4967463;28;20212;-92
2023/12/12 07:27:56;;;;;;;1.50;1.40;;;15.00;99.90;;;;;;4967157;28;20181;-92
2023/12/12 07:30:22;;;;;;;1.47;1.33;;;14.90;99.90;;;;;;4968350;28;20169;-92
2023/12/12 07:32:48;;;;;;;2.73;1.50;;;14.90;99.90;;;;;;4969468;28;20172;-92
2023/12/12 07:35:13;;;;;;;2.70;1.63;;;14.90;99.90;;;;;;4967969;28;20244;-92
2023/12/12 07:37:39;;;;;;;2.37;1.57;;;14.90;99.90;;;;;;4967808;28;20421;-92
2023/12/12 07:40:08;;;;;;;3.03;1.67;;;14.90;99.90;;;;;;4968303;28;20553;-92
2023/12/12 07:42:34;;;;;;;2.70;1.83;;;14.90;99.90;;;;;;4968383;28;20179;-92
2023/12/12 07:45:03;;;;;;;3.60;1.73;;;14.90;99.90;;;;;;4967857;28;20168;-92
2023/12/12 07:47:29;;;;;;;1.93;1.50;;;14.90;99.90;;;;;;4968772;28;20184;-93
2023/12/12 07:49:55;;;;;;;2.67;1.80;;;14.90;99.90;;;;;;4968938;28;20180;-92
2023/12/12 07:52:24;;;;;;;2.90;1.60;;;14.90;99.90;;;;;;4969887;28;20721;-93
2023/12/12 07:54:52;;;;;;;2.27;1.70;;;14.90;99.90;;;;;;4968638;28;20177;-92
2023/12/12 07:57:21;;;;;;;2.67;1.50;;;14.90;99.90;;;;;;4968947;28;20220;-92
2023/12/12 07:59:50;;;;;;;2.70;1.80;;;14.90;99.90;;;;;;4966814;28;20175;-92
2023/12/12 08:02:16;;;;;;;2.87;1.90;;;14.90;99.90;;;;;;4964350;28;20436;-92
2023/12/12 08:04:44;;;;;;;2.90;1.80;;;14.90;99.90;;;;;;4967832;28;20411;-92
2023/12/12 08:07:13;;;;;;;3.70;1.83;;;14.90;99.90;;;;;;4967970;28;20208;-92
2023/12/12 08:09:39;;;;;;;2.90;1.80;;;14.90;99.90;;;;;;4970369;28;20288;-92
2023/12/12 08:12:07;;;;;;;2.90;1.67;;;14.90;99.90;;;;;;4953093;28;20237;-93
2023/12/12 08:14:36;;;;;;;2.77;1.67;;;14.90;99.90;;;;;;4960873;28;20279;-92
2023/12/12 08:17:01;;;;;;;3.87;1.60;;;14.90;99.90;;;;;;4965433;28;20178;-92
2023/12/12 08:19:28;;;;;;;2.50;1.80;;;14.90;99.90;;;;;;4969647;28;20325;-92
2023/12/12 08:21:54;;;;;;;2.67;1.70;;;14.90;99.90;;;;;;4967620;28;20206;-92
2023/12/12 08:24:22;;;;;;;3.40;1.90;;;14.90;99.90;;;;;;4967763;28;20339;-92
2023/12/12 08:26:47;;;;;;;2.43;1.70;;;14.90;99.90;;;;;;4968941;28;20204;-92
2023/12/12 08:29:14;;;;;;;2.90;1.63;;;14.90;99.90;;;;;;4967900;28;20578;-92
2023/12/12 08:31:40;;;;;;;3.07;1.90;;;14.90;99.90;;;;;;4968707;28;20620;-92
2023/12/12 08:34:06;;;;;;;3.00;1.73;;;14.90;99.90;;;;;;4969865;28;20179;-92
2023/12/12 08:36:40;;;;;;;3.63;2.13;;;14.90;99.90;;;;;;4971671;28;20271;-92
2023/12/12 08:39:07;;;;;;;3.83;2.03;;;14.90;99.90;;;;;;4970815;28;20171;-92
2023/12/12 08:41:33;;;;;;;3.17;1.77;;;15.00;99.90;;;;;;4972817;28;20366;-93
2023/12/12 08:43:59;;;;;;;3.20;1.80;;;15.00;99.90;;;;;;4971372;28;20184;-93
2023/12/12 08:46:28;;;;;;;6.87;2.50;;;15.00;99.90;;;;;;4972375;28;20205;-92
2023/12/12 08:49:17;;;;;;;6.83;2.20;;;15.00;99.90;;;;;;4969472;28;20169;-93
2023/12/12 08:51:43;;;;;;;5.10;2.10;;;15.00;99.90;;;;;;4953611;28;20264;-93
2023/12/12 08:54:09;;;;;;;4.13;2.20;;;15.00;99.90;;;;;;4967844;28;20184;-92
2023/12/12 08:56:36;;;;;;;4.50;2.00;;;15.00;99.90;;;;;;4968684;28;20355;-92
2023/12/12 08:59:05;;;;;;;8.17;2.40;;;15.10;99.90;;;;;;4967933;28;20191;-92
2023/12/12 09:01:30;;;;;;;3.60;1.90;;;15.10;99.90;;;;;;4968521;28;20441;-92
2023/12/12 09:03:56;;;;;;;4.23;2.00;;;15.10;99.90;;;;;;4970200;28;20548;-93
2023/12/12 09:06:22;;;;;;;3.67;2.07;;;15.10;99.90;;;;;;4972977;28;20226;-93
2023/12/12 09:08:48;;;;;;;5.57;2.60;;;15.10;99.90;;;;;;4973960;28;20285;-92
2023/12/12 09:11:13;;;;;;;8.47;2.63;;;15.10;99.90;;;;;;4972670;28;20185;-92
2023/12/12 09:13:46;;;;;;;13.17;2.50;;;15.10;99.90;;;;;;4974218;28;20294;-93
2023/12/12 09:16:12;;;;;;;5.53;2.43;;;15.10;99.90;;;;;;4968452;28;20174;-92
2023/12/12 09:18:40;;;;;;;4.47;2.50;;;15.10;99.90;;;;;;4967239;28;20176;-92
2023/12/12 09:21:06;;;;;;;6.13;2.90;;;15.10;99.90;;;;;;4969628;28;20625;-92
2023/12/12 09:23:38;;;;;;;8.13;3.13;;;15.10;99.90;;;;;;4968836;28;20178;-92
2023/12/12 09:26:04;;;;;;;6.93;2.80;;;15.10;99.90;;;;;;4984430;28;20206;-93
2023/12/12 09:28:30;;;;;;;5.47;2.53;;;15.10;99.90;;;;;;4968840;28;20177;-92
2023/12/12 09:30:59;;;;;;;7.63;2.90;;;15.10;99.90;;;;;;4970595;28;20175;-92
2023/12/12 09:33:27;;;;;;;7.63;3.07;;;15.10;99.90;;;;;;4969340;28;20173;-92
2023/12/12 09:35:53;;;;;;;7.80;2.47;;;15.10;99.90;;;;;;4966924;28;20295;-92
2023/12/12 09:38:21;;;;;;;6.60;3.27;;;15.10;99.90;;;;;;4967909;28;20198;-92
2023/12/12 09:40:50;;;;;;;10.53;3.20;;;15.20;99.90;;;;;;4968279;28;20345;-92
2023/12/12 09:43:16;;;;;;;5.67;2.97;;;15.20;99.90;;;;;;4969111;28;20175;-92
2023/12/12 09:45:46;;;;;;;6.37;2.90;;;15.20;99.90;;;;;;4969105;28;20202;-92
2023/12/12 09:48:16;;;;;;;6.77;3.27;;;15.20;99.90;;;;;;4970115;28;20269;-92
2023/12/12 09:50:46;;;;;;;7.30;3.10;;;15.30;99.90;;;;;;4969753;28;20177;-92
2023/12/12 09:53:15;;;;;;;6.10;3.00;;;15.20;99.90;;;;;;4970164;28;20262;-92
2023/12/12 09:55:41;;;;;;;6.70;3.30;;;15.20;99.90;;;;;;4972252;28;20280;-92
2023/12/12 09:58:10;;;;;;;6.13;2.93;;;15.20;99.90;;;;;;4971722;28;20178;-92
2023/12/12 10:00:35;;;;;;;7.77;3.10;;;15.30;99.90;;;;;;4971287;28;20332;-92
2023/12/12 10:03:05;;;;;;;6.47;3.10;;;15.30;99.90;;;;;;4968188;28;20182;-93
2023/12/12 10:05:33;;;;;;;6.50;2.80;;;15.50;99.90;;;;;;4987234;28;20397;-92
2023/12/12 10:08:04;;;;;;;6.53;3.10;;;15.50;99.90;;;;;;4970238;28;20209;-92
2023/12/12 10:10:30;;;;;;;5.10;2.80;;;15.40;99.90;;;;;;4967950;28;20170;-92
2023/12/12 10:12:56;;;;;;;6.50;2.93;;;15.40;99.90;;;;;;4967984;28;20182;-92
2023/12/12 10:15:26;;;;;;;7.63;3.30;;;15.40;99.90;;;;;;4969923;28;20545;-92
2023/12/12 10:17:59;;;;;;;5.80;2.70;;;15.40;99.90;;;;;;4967758;28;20170;-92
2023/12/12 10:20:27;;;;;;;5.03;3.13;;;15.40;99.90;;;;;;4968343;28;20182;-92
2023/12/12 10:22:54;;;;;;;7.90;2.93;;;15.40;99.90;;;;;;4983621;28;20179;-93
2023/12/12 10:25:23;;;;;;;7.53;2.77;;;15.40;99.90;;;;;;4969661;28;20170;-91
2023/12/12 10:27:55;;;;;;;5.37;2.90;;;15.50;99.90;;;;;;4968004;28;20171;-90
2023/12/12 10:30:21;;;;;;;5.93;3.00;;;15.50;99.80;;;;;;4969133;28;20321;-91
2023/12/12 10:32:54;;;;;;;5.33;2.87;;;15.50;99.80;;;;;;4966698;28;20233;-91
2023/12/12 10:35:24;;;;;;;7.03;2.80;;;15.50;99.60;;;;;;4967688;28;20426;-91
2023/12/12 10:37:53;;;;;;;10.33;2.77;;;15.60;99.70;;;;;;4966359;28;20170;-90
2023/12/12 10:40:24;;;;;;;8.80;3.00;;;15.60;99.60;;;;;;4980450;28;20170;-91
2023/12/12 10:42:53;;;;;;;5.57;2.70;;;15.60;99.60;;;;;;4970695;28;20255;-90
2023/12/12 10:45:22;;;;;;;5.00;2.63;;;15.60;99.60;;;;;;4968698;28;20202;-90
2023/12/12 10:47:50;;;;;;;5.27;2.50;;;15.60;99.50;;;;;;4970037;28;20206;-91
2023/12/12 10:50:20;;;;;;;6.23;2.63;;;15.60;99.50;;;;;;4965357;28;20339;-91
2023/12/12 10:52:48;;;;;;;7.40;2.77;;;15.60;99.50;;;;;;4964899;28;20166;-91
2023/12/12 10:55:18;;;;;;;8.63;3.67;;;15.60;99.50;;;;;;4964515;28;20174;-90
2023/12/12 10:57:46;;;;;;;6.10;2.97;;;15.70;99.50;;;;;;4967521;28;20676;-90
2023/12/12 11:00:14;;;;;;;8.23;4.17;;;15.70;99.40;;;;;;4968007;28;20178;-90
2023/12/12 11:02:41;;;;;;;7.43;3.13;;;15.70;99.50;;;;;;4969610;28;20391;-91
2023/12/12 11:05:12;;;;;;;7.60;4.07;;;15.70;99.40;;;;;;4984700;28;20171;-90
2023/12/12 11:07:39;;;;;;;8.60;4.27;;;15.70;99.50;;;;;;4985639;28;20331;-91
2023/12/12 11:10:10;;;;;;;7.10;4.10;;;15.70;99.50;;;;;;4965430;28;20174;-90
2023/12/12 11:13:03;;;;;;;8.73;4.40;;;15.70;99.50;;;;;;4969471;28;20175;-90
2023/12/12 11:15:33;;;;;;;8.10;4.73;;;15.70;99.50;;;;;;4930760;28;20174;-90
2023/12/12 11:17:59;;;;;;;8.87;4.77;;;15.70;99.50;;;;;;4962792;28;20355;-93
2023/12/12 11:20:29;;;;;;;10.53;5.60;;;15.70;99.50;;;;;;4965107;28;20174;-90
2023/12/12 11:22:55;;;;;;;8.93;4.97;;;15.70;99.50;;;;;;4983685;28;20174;-91
2023/12/12 11:25:21;;;;;;;9.50;5.47;;;15.70;99.50;;;;;;4965383;28;20356;-90
2023/12/12 11:27:57;;;;;;;9.90;4.60;;;15.70;99.60;;;;;;4983926;28;20173;-91
2023/12/12 11:30:31;;;;;;;10.60;4.93;;;15.70;99.50;;;;;;4966920;28;20174;-90
2023/12/12 11:32:57;;;;;;;10.03;5.13;;;15.70;99.60;;;;;;4967938;28;20449;-90
2023/12/12 11:35:25;;;;;;;11.33;5.23;;;15.70;99.60;;;;;;4967364;28;20182;-90
2023/12/12 11:37:53;;;;;;;8.40;5.03;;;15.70;99.60;;;;;;4968483;28;20170;-90
2023/12/12 11:40:18;;;;;;;10.73;5.93;;;15.70;99.60;;;;;;4966734;28;20407;-91
2023/12/12 11:42:46;;;;;;;9.40;5.90;;;15.70;99.80;;;;;;4976555;28;20186;-91
2023/12/12 11:45:34;;;;;;;10.07;6.20;;;15.70;99.80;;;;;;4967341;28;20186;-91
2023/12/12 11:48:05;;;;;;;12.03;6.10;;;15.70;99.90;;;;;;4956230;28;20193;-90
2023/12/12 11:50:32;;;;;;;12.20;6.03;;;15.70;99.90;;;;;;4967626;28;20197;-90
2023/12/12 11:52:59;;;;;;;9.13;5.43;;;15.70;99.90;;;;;;4968101;28;20206;-91
2023/12/12 11:55:29;;;;;;;11.07;5.73;;;15.70;99.90;;;;;;4971510;28;20171;-90
2023/12/12 11:58:05;;;;;;;9.07;5.60;;;15.70;99.90;;;;;;4969277;28;20404;-90
2023/12/12 12:00:37;;;;;;;11.53;5.70;;;15.70;99.90;;;;;;4969832;28;20175;-90
2023/12/12 12:03:05;;;;;;;13.20;6.40;;;15.70;99.90;;;;;;4965936;28;20521;-90
2023/12/12 12:05:31;;;;;;;9.60;5.27;;;15.70;99.90;;;;;;4970976;28;20217;-90
2023/12/12 12:07:57;;;;;;;11.57;5.93;;;15.70;99.90;;;;;;4969224;28;20377;-90
2023/12/12 12:10:26;;;;;;;9.53;5.70;;;15.70;99.90;;;;;;4968643;28;20247;-90
2023/12/12 12:12:56;;;;;;;10.50;5.37;;;15.70;99.90;;;;;;4967467;28;20240;-90
2023/12/12 12:15:22;;;;;;;11.63;5.57;;;15.70;99.90;;;;;;4968381;28;20174;-90
2023/12/12 12:17:50;;;;;;;9.67;5.80;;;15.70;99.90;;;;;;4967552;28;20485;-89
2023/12/12 12:20:16;;;;;;;7.87;5.30;;;15.70;99.90;;;;;;4967660;28;20352;-89
2023/12/12 12:22:42;;;;;;;9.50;5.80;;;15.70;99.90;;;;;;4969473;28;20497;-89
2023/12/12 12:25:11;;;;;;;9.73;5.20;;;15.70;99.90;;;;;;4968572;28;20233;-89
2023/12/12 12:27:52;;;;;;;9.30;5.83;;;15.70;99.90;;;;;;4969455;28;20645;-90
2023/12/12 12:30:18;;;;;;;8.70;4.87;;;15.70;99.90;;;;;;4969007;28;20543;-90
2023/12/12 12:33:06;;;;;;;9.37;5.23;;;15.70;99.90;;;;;;4969888;28;20171;-90
2023/12/12 12:35:32;;;;;;;9.20;5.33;;;15.70;99.90;;;;;;4968195;28;20679;-90
2023/12/12 12:37:57;;;;;;;11.17;5.83;;;15.70;99.90;;;;;;4983325;28;20270;-90
2023/12/12 12:40:37;;;;;;;8.77;4.97;;;15.70;99.90;;;;;;4967049;28;20471;-90
2023/12/12 12:43:13;;;;;;;11.03;5.30;;;15.70;99.90;;;;;;4969272;28;20572;-91
2023/12/12 12:45:42;;;;;;;7.60;4.60;;;15.70;99.90;;;;;;4968623;28;20433;-91
2023/12/12 12:48:10;;;;;;;9.30;5.00;;;15.80;99.90;;;;;;4986970;28;20174;-90